createdAt,value
2022-08-02T00:01:53.933Z,37.62
2022-08-02T00:04:26.818Z,37.11
2022-08-02T00:06:59.359Z,37.55
2022-08-02T00:09:32.145Z,37.86
2022-08-02T00:12:06.576Z,37.74
2022-08-02T00:14:39.605Z,37.01
2022-08-02T00:17:12.280Z,37.35
2022-08-02T00:19:45.434Z,37.77
2022-08-02T00:22:18.432Z,37.52
2022-08-02T00:24:51.780Z,38.24
2022-08-02T00:27:26.343Z,37.46
2022-08-02T00:29:59.148Z,38.31
2022-08-02T00:32:31.826Z,37.96
2022-08-02T00:35:04.957Z,38.12
2022-08-02T00:37:40.518Z,38.02
2022-08-02T00:40:13.612Z,38.08
2022-08-02T00:42:47.739Z,38.11
2022-08-02T00:45:20.509Z,37.92
2022-08-02T00:48:14.090Z,38.00
2022-08-02T00:50:46.745Z,37.76
2022-08-02T00:53:19.564Z,38.08
2022-08-02T00:55:52.458Z,38.18
2022-08-02T00:58:26.522Z,38.01
2022-08-02T01:01:01.050Z,38.34
2022-08-02T01:03:33.802Z,38.17
2022-08-02T01:06:14.380Z,37.92
2022-08-02T01:08:47.118Z,38.03
2022-08-02T01:11:20.005Z,37.98
2022-08-02T01:13:54.551Z,38.47
2022-08-02T01:16:32.068Z,37.97
2022-08-02T01:19:16.201Z,38.23
2022-08-02T01:22:03.124Z,38.44
2022-08-02T01:24:55.706Z,38.46
2022-08-02T01:27:40.031Z,38.15
2022-08-02T01:30:15.622Z,38.23
2022-08-02T01:32:54.642Z,38.23
2022-08-02T01:35:50.914Z,38.21
2022-08-02T01:38:31.975Z,38.35
2022-08-02T01:41:06.239Z,38.15
2022-08-02T01:43:41.389Z,38.01
2022-08-02T01:46:17.628Z,38.36
2022-08-02T01:48:51.717Z,38.31
2022-08-02T01:51:42.233Z,38.27
2022-08-02T01:54:18.479Z,38.29
2022-08-02T01:56:52.246Z,38.50
2022-08-02T01:59:27.193Z,38.54
2022-08-02T02:02:02.557Z,38.39
2022-08-02T02:04:36.966Z,38.55
2022-08-02T02:07:10.742Z,38.99
2022-08-02T02:09:50.726Z,38.65
2022-08-02T02:12:25.594Z,38.68
2022-08-02T02:15:01.225Z,38.44
2022-08-02T02:17:50.751Z,38.91
2022-08-02T02:20:30.176Z,39.13
2022-08-02T02:23:03.163Z,38.81
2022-08-02T02:25:41.783Z,38.60
2022-08-02T02:28:24.401Z,39.05
2022-08-02T02:31:03.101Z,38.97
2022-08-02T02:33:49.733Z,39.08
2022-08-02T02:36:23.857Z,38.78
2022-08-02T02:39:00.558Z,38.71
2022-08-02T02:41:35.064Z,38.88
2022-08-02T02:44:11.050Z,38.91
2022-08-02T02:46:45.344Z,38.81
2022-08-02T02:49:21.275Z,38.70
2022-08-02T02:51:55.203Z,38.99
2022-08-02T02:54:34.598Z,38.93
2022-08-02T02:57:09.315Z,38.67
2022-08-02T02:59:49.154Z,38.55
2022-08-02T03:02:23.058Z,38.69
2022-08-02T03:04:58.317Z,38.76
2022-08-02T03:07:33.502Z,38.68
2022-08-02T03:10:08.074Z,38.82
2022-08-02T03:12:40.872Z,38.75
2022-08-02T03:15:15.079Z,39.34
2022-08-02T03:17:48.317Z,39.29
2022-08-02T03:20:23.555Z,39.27
2022-08-02T03:22:56.295Z,39.36
2022-08-02T03:25:28.965Z,39.23
2022-08-02T03:28:01.632Z,39.74
2022-08-02T03:30:34.529Z,39.31
2022-08-02T03:33:07.252Z,39.47
2022-08-02T03:35:42.615Z,39.41
2022-08-02T03:38:18.516Z,39.74
2022-08-02T03:40:52.417Z,39.74
2022-08-02T03:43:28.666Z,39.79
2022-08-02T03:46:03.940Z,39.78
2022-08-02T03:48:39.066Z,39.64
2022-08-02T03:51:14.085Z,39.69
2022-08-02T03:53:47.490Z,40.03
2022-08-02T03:56:22.990Z,40.11
2022-08-02T03:59:07.106Z,39.91
2022-08-02T04:01:40.345Z,39.58
2022-08-02T04:04:13.668Z,39.82
2022-08-02T04:06:47.708Z,39.59
2022-08-02T04:09:20.777Z,39.96
2022-08-02T04:11:53.525Z,40.28
2022-08-02T04:14:27.627Z,39.94
2022-08-02T04:17:05.486Z,40.06
2022-08-02T04:19:41.714Z,40.36
2022-08-02T04:22:19.437Z,40.01
2022-08-02T04:24:55.418Z,40.31
2022-08-02T04:27:50.929Z,40.29
2022-08-02T04:30:23.017Z,40.46
2022-08-02T04:32:56.335Z,40.11
2022-08-02T04:35:29.401Z,40.11
2022-08-02T04:38:09.913Z,40.00
2022-08-02T04:40:52.250Z,39.94
2022-08-02T04:43:25.186Z,40.09
2022-08-02T04:45:58.050Z,40.02
2022-08-02T04:48:30.834Z,40.61
2022-08-02T04:51:03.511Z,40.18
2022-08-02T04:53:37.666Z,40.26
2022-08-02T04:56:11.243Z,43.21
2022-08-02T04:58:44.079Z,43.82
2022-08-02T05:01:17.010Z,44.40
2022-08-02T05:03:49.727Z,45.29
2022-08-02T05:06:23.860Z,44.51
2022-08-02T05:08:58.210Z,45.40
2022-08-02T05:11:36.138Z,45.58
2022-08-02T05:14:09.674Z,46.49
2022-08-02T05:16:42.450Z,46.36
2022-08-02T05:19:15.254Z,46.52
2022-08-02T05:21:48.265Z,48.13
2022-08-02T05:24:22.310Z,48.16
2022-08-02T05:26:55.395Z,48.71
2022-08-02T05:29:27.939Z,49.16
2022-08-02T05:32:01.456Z,48.73
2022-08-02T05:34:34.167Z,49.10
2022-08-02T05:37:09.777Z,50.14
2022-08-02T05:39:55.536Z,49.07
2022-08-02T05:42:32.103Z,49.84
2022-08-02T05:45:06.009Z,50.42
2022-08-02T05:47:39.656Z,50.86
2022-08-02T05:50:12.506Z,50.85
2022-08-02T05:52:49.732Z,51.01
2022-08-02T05:55:28.374Z,53.24
2022-08-02T05:58:06.917Z,53.17
2022-08-02T06:00:42.158Z,53.48
2022-08-02T06:03:25.528Z,53.84
2022-08-02T06:06:01.709Z,54.09
2022-08-02T06:08:43.437Z,55.64
2022-08-02T06:11:23.469Z,54.05
2022-08-02T06:13:56.721Z,54.40
2022-08-02T06:16:32.060Z,55.41
2022-08-02T06:19:06.487Z,54.79
2022-08-02T06:22:31.753Z,56.76
2022-08-02T06:24:35.514Z,56.62
2022-08-02T06:27:09.708Z,56.26
2022-08-02T06:29:44.243Z,57.28
2022-08-02T06:32:19.133Z,56.63
2022-08-02T06:34:51.845Z,57.31
2022-08-02T06:37:31.741Z,57.03
2022-08-02T06:40:15.826Z,54.82
2022-08-02T06:42:56.995Z,56.63
2022-08-02T06:45:29.838Z,57.57
2022-08-02T06:48:03.458Z,56.90
2022-08-02T06:50:38.252Z,57.51
2022-08-02T06:53:12.279Z,56.38
2022-08-02T06:55:45.097Z,55.36
2022-08-02T06:58:22.006Z,53.94
2022-08-02T07:00:54.870Z,57.05
2022-08-02T07:03:27.933Z,55.41
2022-08-02T07:06:01.391Z,56.48
2022-08-02T07:08:36.105Z,54.34
2022-08-02T07:11:10.669Z,54.36
2022-08-02T07:13:46.354Z,53.85
2022-08-02T07:16:19.127Z,53.39
2022-08-02T07:18:51.790Z,54.05
2022-08-02T07:21:56.743Z,52.77
2022-08-02T07:24:17.194Z,53.09
2022-08-02T07:27:10.713Z,53.52
2022-08-02T07:29:46.445Z,53.12
2022-08-02T07:32:21.642Z,53.20
2022-08-02T07:34:55.621Z,51.80
2022-08-02T07:37:54.115Z,51.93
2022-08-02T07:40:25.367Z,51.58
2022-08-02T07:43:03.592Z,51.04
2022-08-02T07:45:55.871Z,51.32
2022-08-02T07:48:30.865Z,50.56
2022-08-02T07:51:03.576Z,50.53
2022-08-02T07:53:50.723Z,50.70
2022-08-02T07:56:24.623Z,50.64
2022-08-02T07:58:57.324Z,50.79
2022-08-02T08:01:31.538Z,50.11
2022-08-02T08:04:04.790Z,50.40
2022-08-02T08:06:37.829Z,50.17
2022-08-02T08:09:10.871Z,49.89
2022-08-02T08:11:43.470Z,50.37
2022-08-02T08:14:17.170Z,50.76
2022-08-02T08:16:51.206Z,49.16
2022-08-02T08:19:43.908Z,48.08
2022-08-02T08:22:17.636Z,47.79
2022-08-02T08:24:51.337Z,47.23
2022-08-02T08:27:24.264Z,47.24
2022-08-02T08:29:57.272Z,47.61
2022-08-02T08:32:31.389Z,46.38
2022-08-02T08:35:06.963Z,46.08
2022-08-02T08:37:40.552Z,45.85
2022-08-02T08:40:19.334Z,45.93
2022-08-02T08:42:53.160Z,45.44
2022-08-02T08:45:26.250Z,44.72
2022-08-02T08:48:02.773Z,44.64
2022-08-02T08:50:39.480Z,44.66
2022-08-02T08:53:13.764Z,43.39
2022-08-02T08:55:46.884Z,43.63
2022-08-02T08:58:19.522Z,43.18
2022-08-02T09:00:52.273Z,43.01
2022-08-02T09:03:26.872Z,43.66
2022-08-02T09:06:07.168Z,43.18
2022-08-02T09:08:39.845Z,43.39
2022-08-02T09:11:17.711Z,43.10
2022-08-02T09:13:52.427Z,43.77
2022-08-02T09:16:30.827Z,42.77
2022-08-02T09:19:18.881Z,42.22
2022-08-02T09:21:52.630Z,42.46
2022-08-02T09:24:25.961Z,42.21
2022-08-02T09:27:11.926Z,41.77
2022-08-02T09:30:12.666Z,42.23
2022-08-02T09:32:46.373Z,42.56
2022-08-02T09:36:05.364Z,42.71
2022-08-02T09:38:27.936Z,42.41
2022-08-02T09:41:01.479Z,41.69
2022-08-02T09:44:03.611Z,41.92
2022-08-02T09:46:36.252Z,41.48
2022-08-02T09:49:11.493Z,41.68
2022-08-02T09:51:52.730Z,41.49
2022-08-02T09:54:29.130Z,41.58
2022-08-02T09:57:03.104Z,41.42
2022-08-02T09:59:35.871Z,41.12
2022-08-02T10:02:17.777Z,40.55
2022-08-02T10:04:55.349Z,41.00
2022-08-02T10:07:30.291Z,40.85
2022-08-02T10:10:03.542Z,40.19
2022-08-02T10:12:37.849Z,40.50
2022-08-02T10:15:17.570Z,40.99
2022-08-02T10:17:50.634Z,40.52
2022-08-02T10:20:23.719Z,40.14
2022-08-02T10:22:59.770Z,39.81
2022-08-02T10:25:33.356Z,39.29
2022-08-02T10:28:07.686Z,39.67
2022-08-02T10:30:43.721Z,38.66
2022-08-02T10:33:20.028Z,39.09
2022-08-02T10:36:04.504Z,39.99
2022-08-02T10:38:41.996Z,38.49
2022-08-02T10:41:14.796Z,38.27
2022-08-02T10:43:49.959Z,38.02
2022-08-02T10:46:32.820Z,37.31
2022-08-02T10:49:36.714Z,37.26
2022-08-02T10:52:08.012Z,37.15
2022-08-02T10:54:44.526Z,36.27
2022-08-02T10:57:20.221Z,36.86
2022-08-02T10:59:56.232Z,36.62
2022-08-02T11:02:38.048Z,36.02
2022-08-02T11:05:14.205Z,36.46
2022-08-02T11:07:49.389Z,36.54
2022-08-02T11:10:35.712Z,36.11
2022-08-02T11:13:11.848Z,36.04
2022-08-02T11:15:57.066Z,35.59
2022-08-02T11:19:03.989Z,35.23
2022-08-02T11:21:44.414Z,35.54
2022-08-02T11:24:32.277Z,35.35
2022-08-02T11:27:09.622Z,35.13
2022-08-02T11:29:44.691Z,35.09
2022-08-02T11:32:19.502Z,34.84
2022-08-02T11:34:54.812Z,34.82
2022-08-02T11:37:30.944Z,34.77
2022-08-02T11:40:04.025Z,35.23
2022-08-02T11:42:40.187Z,35.51
2022-08-02T11:45:21.338Z,35.18
2022-08-02T11:47:55.606Z,34.58
2022-08-02T11:50:30.359Z,33.68
2022-08-02T11:53:03.320Z,33.88
2022-08-02T11:55:36.069Z,33.94
2022-08-02T11:58:11.656Z,33.46
2022-08-02T12:00:47.037Z,33.38
2022-08-02T12:03:20.197Z,33.34
2022-08-02T12:06:04.712Z,33.71
2022-08-02T12:08:38.928Z,32.67
2022-08-02T12:11:11.634Z,33.26
2022-08-02T12:13:57.035Z,33.08
2022-08-02T12:16:53.422Z,33.06
2022-08-02T12:19:27.862Z,33.09
2022-08-02T12:22:18.770Z,33.80
2022-08-02T12:24:52.837Z,32.60
2022-08-02T12:27:30.941Z,33.95
2022-08-02T12:30:08.295Z,34.10
2022-08-02T12:32:41.823Z,33.45
2022-08-02T12:35:25.972Z,34.84
2022-08-02T12:37:58.916Z,34.55
2022-08-02T12:40:34.439Z,33.89
2022-08-02T12:43:09.786Z,33.96
2022-08-02T12:45:50.538Z,34.14
2022-08-02T12:48:37.714Z,34.45
2022-08-02T12:51:21.540Z,34.18
2022-08-02T12:53:59.585Z,34.63
2022-08-02T12:56:38.205Z,35.12
2022-08-02T12:59:11.334Z,34.86
2022-08-02T13:01:45.971Z,35.07
2022-08-02T13:04:18.855Z,35.31
2022-08-02T13:06:51.609Z,34.34
2022-08-02T13:09:29.135Z,34.78
2022-08-02T13:12:02.113Z,34.48
2022-08-02T13:14:41.761Z,34.02
2022-08-02T13:17:16.362Z,33.58
2022-08-02T13:19:51.061Z,33.20
2022-08-02T13:22:26.076Z,32.78
2022-08-02T13:25:01.485Z,32.84
2022-08-02T13:27:34.818Z,33.30
2022-08-02T13:30:08.704Z,33.15
2022-08-02T13:32:42.790Z,32.83
2022-08-02T13:35:18.236Z,32.86
2022-08-02T13:37:51.236Z,33.23
2022-08-02T13:40:24.127Z,32.75
2022-08-02T13:42:57.601Z,33.06
2022-08-02T13:45:30.263Z,33.11
2022-08-02T13:48:16.646Z,33.45
2022-08-02T13:50:51.367Z,33.90
2022-08-02T13:53:24.173Z,34.15
2022-08-02T13:55:58.847Z,33.52
2022-08-02T13:58:31.654Z,33.77
2022-08-02T14:01:04.469Z,34.09
2022-08-02T14:04:07.802Z,34.26
2022-08-02T14:06:31.288Z,33.40
2022-08-02T14:09:04.145Z,33.76
2022-08-02T14:11:36.983Z,33.43
2022-08-02T14:14:16.057Z,33.08
2022-08-02T14:16:49.828Z,32.92
2022-08-02T14:19:24.168Z,33.10
2022-08-02T14:22:10.863Z,33.36
2022-08-02T14:24:45.168Z,34.05
2022-08-02T14:27:17.854Z,33.75
2022-08-02T14:29:51.311Z,34.43
2022-08-02T14:32:28.042Z,33.47
2022-08-02T14:35:07.395Z,34.14
2022-08-02T14:37:40.144Z,33.98
2022-08-02T14:40:27.872Z,34.53
2022-08-02T14:43:01.721Z,33.26
2022-08-02T14:45:36.624Z,33.63
2022-08-02T14:48:13.856Z,34.54
2022-08-02T14:50:47.906Z,33.91
2022-08-02T14:53:20.669Z,32.95
2022-08-02T14:55:53.457Z,33.06
2022-08-02T14:58:26.244Z,34.06
2022-08-02T15:00:59.097Z,33.64
2022-08-02T15:03:31.987Z,32.77
2022-08-02T15:06:17.977Z,33.57
2022-08-02T15:08:50.739Z,33.06
2022-08-02T15:11:23.444Z,33.45
2022-08-02T15:13:59.117Z,32.70
2022-08-02T15:16:55.626Z,33.60
2022-08-02T15:19:56.672Z,34.34
2022-08-02T15:22:23.022Z,33.14
2022-08-02T15:24:55.744Z,33.38
2022-08-02T15:27:28.587Z,32.73
2022-08-02T15:30:01.296Z,33.30
2022-08-02T15:32:33.983Z,32.96
2022-08-02T15:35:07.898Z,32.91
2022-08-02T15:37:42.015Z,33.06
2022-08-02T15:40:14.787Z,33.11
2022-08-02T15:42:47.699Z,32.81
2022-08-02T15:45:20.402Z,33.15
2022-08-02T15:47:53.062Z,32.96
2022-08-02T15:50:25.797Z,33.15
2022-08-02T15:52:59.894Z,33.30
2022-08-02T15:55:39.871Z,33.75
2022-08-02T15:58:26.401Z,33.78
2022-08-02T16:00:59.887Z,34.39
2022-08-02T16:03:32.591Z,33.00
2022-08-02T16:06:05.462Z,33.90
2022-08-02T16:08:51.703Z,33.31
2022-08-02T16:11:27.499Z,34.11
2022-08-02T16:14:00.199Z,34.25
2022-08-02T16:16:34.984Z,34.21
2022-08-02T16:19:46.499Z,34.02
2022-08-02T16:22:01.326Z,34.62
2022-08-02T16:24:35.387Z,34.22
2022-08-02T16:27:09.396Z,33.98
2022-08-02T16:29:42.143Z,34.41
2022-08-02T16:32:16.421Z,34.71
2022-08-02T16:35:07.854Z,34.70
2022-08-02T16:37:51.550Z,35.00
2022-08-02T16:40:27.055Z,34.74
2022-08-02T16:43:00.353Z,34.25
2022-08-02T16:45:33.119Z,34.65
2022-08-02T16:48:07.691Z,34.58
2022-08-02T16:50:46.299Z,34.99
2022-08-02T16:53:36.249Z,34.51
2022-08-02T16:56:12.195Z,35.12
2022-08-02T16:58:47.947Z,34.75
2022-08-02T17:01:27.365Z,34.19
2022-08-02T17:04:00.577Z,33.65
2022-08-02T17:06:33.245Z,35.50
2022-08-02T17:09:06.405Z,36.42
2022-08-02T17:11:45.511Z,36.54
2022-08-02T17:14:19.688Z,37.13
2022-08-02T17:16:52.947Z,37.52
2022-08-02T17:19:26.019Z,37.50
2022-08-02T17:21:58.762Z,37.46
2022-08-02T17:24:31.526Z,37.97
2022-08-02T17:27:05.688Z,38.43
2022-08-02T17:29:42.136Z,38.11
2022-08-02T17:32:15.518Z,38.75
2022-08-02T17:35:00.050Z,38.51
2022-08-02T17:37:41.570Z,38.44
2022-08-02T17:40:14.712Z,39.32
2022-08-02T17:42:53.939Z,39.40
2022-08-02T17:45:27.956Z,39.56
2022-08-02T17:48:19.395Z,38.94
2022-08-02T17:51:01.968Z,39.40
2022-08-02T17:53:36.211Z,40.62
2022-08-02T17:56:09.261Z,40.57
2022-08-02T17:58:53.710Z,40.61
2022-08-02T18:01:26.868Z,41.31
2022-08-02T18:04:05.099Z,40.81
2022-08-02T18:06:39.300Z,40.44
2022-08-02T18:09:12.634Z,41.23
2022-08-02T18:11:52.014Z,42.31
2022-08-02T18:14:27.406Z,42.06
2022-08-02T18:17:00.203Z,42.47
2022-08-02T18:19:42.334Z,42.13
2022-08-02T18:22:26.581Z,42.30
2022-08-02T18:24:59.559Z,43.35
2022-08-02T18:27:32.121Z,42.87
2022-08-02T18:30:08.542Z,43.31
2022-08-02T18:33:56.891Z,42.66
2022-08-02T18:35:34.032Z,43.11
2022-08-02T18:38:11.009Z,42.74
2022-08-02T18:40:44.955Z,42.65
2022-08-02T18:43:25.355Z,43.50
2022-08-02T18:46:05.687Z,43.38
2022-08-02T18:48:48.359Z,43.38
2022-08-02T18:51:21.253Z,44.03
2022-08-02T18:53:54.313Z,43.28
2022-08-02T18:56:27.216Z,44.26
2022-08-02T18:59:05.605Z,44.37
2022-08-02T19:01:50.282Z,43.72
2022-08-02T19:04:27.863Z,43.26
2022-08-02T19:07:07.530Z,44.36
2022-08-02T19:09:40.985Z,44.63
2022-08-02T19:12:14.170Z,43.94
2022-08-02T19:14:48.304Z,44.55
2022-08-02T19:17:55.565Z,43.87
2022-08-02T19:20:19.345Z,43.39
2022-08-02T19:22:53.530Z,43.07
2022-08-02T19:25:27.865Z,43.26
2022-08-02T19:28:00.968Z,43.14
2022-08-02T19:30:34.830Z,42.92
2022-08-02T19:33:09.838Z,43.10
2022-08-02T19:38:49.032Z,42.85
2022-08-02T19:41:22.437Z,42.63
2022-08-02T19:44:23.977Z,42.81
2022-08-02T19:46:57.286Z,42.91
2022-08-02T19:49:40.103Z,43.03
2022-08-02T19:56:00.188Z,43.10
2022-08-02T19:58:03.366Z,43.00
2022-08-02T20:00:36.321Z,44.30
2022-08-02T20:03:10.333Z,46.14
2022-08-02T20:05:50.455Z,46.12
2022-08-02T20:08:31.807Z,46.35
2022-08-02T20:11:15.040Z,46.57
2022-08-02T20:13:52.173Z,46.04
2022-08-02T20:16:27.813Z,47.19
2022-08-02T20:19:01.520Z,47.97
2022-08-02T20:21:37.792Z,47.75
2022-08-02T20:24:15.865Z,46.84
2022-08-02T20:26:48.950Z,48.11
2022-08-02T20:29:43.269Z,48.01
2022-08-02T20:32:21.439Z,47.53
2022-08-02T20:34:55.856Z,47.11
2022-08-02T20:37:55.914Z,46.58
2022-08-02T20:40:27.647Z,46.69
2022-08-02T20:43:01.005Z,46.79
2022-08-02T20:45:33.936Z,46.56
2022-08-02T20:48:07.706Z,46.86
2022-08-02T20:50:52.214Z,46.55
2022-08-02T20:53:30.065Z,46.75
2022-08-02T20:56:03.115Z,46.67
2022-08-02T20:58:35.881Z,46.41
2022-08-02T21:01:09.162Z,46.65
2022-08-02T21:03:42.151Z,46.32
2022-08-02T21:06:17.065Z,46.60
2022-08-02T21:08:51.577Z,46.49
2022-08-02T21:11:25.542Z,46.95
2022-08-02T21:14:08.749Z,46.97
2022-08-02T21:16:42.012Z,47.06
2022-08-02T21:19:15.931Z,46.83
2022-08-02T21:21:48.734Z,46.95
2022-08-02T21:24:24.693Z,47.10
2022-08-02T21:26:58.128Z,46.72
2022-08-02T21:29:33.291Z,46.51
2022-08-02T21:32:06.876Z,46.66
2022-08-02T21:34:40.411Z,46.54
2022-08-02T21:37:16.734Z,46.55
2022-08-02T21:39:51.340Z,46.77
2022-08-02T21:42:28.650Z,46.99
2022-08-02T21:45:04.941Z,47.11
2022-08-02T21:47:51.462Z,46.70
2022-08-02T21:50:27.063Z,46.94
2022-08-02T21:53:00.437Z,46.56
2022-08-02T21:56:01.067Z,46.41
2022-08-02T21:58:28.402Z,46.53
2022-08-02T22:01:01.083Z,46.88
2022-08-02T22:03:34.581Z,46.61
2022-08-02T22:06:08.224Z,47.38
2022-08-02T22:08:40.935Z,46.83
2022-08-02T22:14:08.047Z,47.26
2022-08-02T22:16:40.786Z,47.62
2022-08-02T22:19:14.016Z,47.28
2022-08-02T22:24:40.062Z,47.53
2022-08-02T22:27:17.506Z,47.46
2022-08-02T22:29:52.686Z,47.75
2022-08-02T22:32:43.449Z,47.30
2022-08-02T22:35:21.402Z,47.49
2022-08-02T22:38:15.434Z,47.47
2022-08-02T22:40:48.266Z,47.83
2022-08-02T22:43:23.642Z,47.51
2022-08-02T22:45:56.736Z,47.87
2022-08-02T22:48:35.339Z,47.68
2022-08-02T22:51:14.435Z,48.39
2022-08-02T22:53:48.449Z,48.10
2022-08-02T22:56:22.109Z,48.50
2022-08-02T22:58:52.547Z,42.74
2022-08-02T22:59:04.209Z,47.32
2022-08-02T22:59:04.668Z,47.56
2022-08-02T22:59:10.285Z,43.01
2022-08-02T23:01:48.692Z,48.36
2022-08-02T23:04:21.639Z,48.67
2022-08-02T23:06:54.505Z,48.15
2022-08-02T23:09:27.362Z,47.70
2022-08-02T23:12:00.198Z,47.89
2022-08-02T23:14:34.524Z,48.37
2022-08-02T23:17:25.982Z,48.10
2022-08-02T23:19:59.113Z,48.14
2022-08-02T23:22:33.165Z,48.33
2022-08-02T23:25:07.890Z,47.94
2022-08-02T23:27:49.618Z,47.67
2022-08-02T23:30:25.413Z,48.34
2022-08-02T23:33:00.681Z,48.20
2022-08-02T23:35:35.172Z,48.55
2022-08-02T23:38:07.862Z,48.49
2022-08-02T23:40:41.327Z,48.89
2022-08-02T23:43:15.439Z,48.44
2022-08-02T23:45:49.741Z,48.30
2022-08-02T23:48:22.799Z,48.67
2022-08-02T23:50:56.440Z,48.54
2022-08-02T23:53:30.173Z,48.78
2022-08-02T23:56:03.263Z,48.43
2022-08-02T23:58:36.413Z,48.73
